Kettle Falls, Washington
Current Conditions -  °F | °C
As of 8:00 PM on Saturday 25 Oct 2014 (Local Time) from CYCG Reporting Station
Rain Showers Rain Showers  
Wind Chill: 46°   Ceiling: 6000
Heat Index: 46°   Visibility: 15mi
Dew Point: 45°   Wind: 0mph
Humidity: 93%   Direction: NA
Pressure: 29.52"   Gusts: NA
Location:  48.61°N, 118.06°W
Report Text: CYCG 260300Z 00000KT 15SM -SHRA FEW026 BKN060 OVC100 08/07 A2952 RMK SC1SC6AC1 PRESFR SLP005
Loading
Personal Weather Stations






























Interactive Weather Map
Tropical Storm Tracking
New forecast layout! Learn more

10-Day Weather Forecast

Advertisements
Track Severe Weather on mobile